sensor_id;sensor_type;location;lat;lon;timestamp;P1;durP1;ratioP1;P2;durP2;ratioP2
41629;SDS011;27322;49.488;8.480;2023-05-21T00:01:35;16.83;;;13.32;;
41629;SDS011;27322;49.488;8.480;2023-05-21T00:04:01;20.10;;;13.50;;
41629;SDS011;27322;49.488;8.480;2023-05-21T00:06:27;20.15;;;14.02;;
41629;SDS011;27322;49.488;8.480;2023-05-21T00:08:53;21.15;;;14.05;;
41629;SDS011;27322;49.488;8.480;2023-05-21T00:11:18;20.08;;;14.15;;
41629;SDS011;27322;49.488;8.480;2023-05-21T00:13:44;18.02;;;13.05;;
41629;SDS011;27322;49.488;8.480;2023-05-21T00:16:09;18.50;;;13.25;;
41629;SDS011;27322;49.488;8.480;2023-05-21T00:18:35;19.40;;;14.07;;
41629;SDS011;27322;49.488;8.480;2023-05-21T00:21:04;18.15;;;13.38;;
41629;SDS011;27322;49.488;8.480;2023-05-21T00:23:30;18.63;;;13.90;;
41629;SDS011;27322;49.488;8.480;2023-05-21T00:25:56;18.50;;;13.02;;
41629;SDS011;27322;49.488;8.480;2023-05-21T00:28:23;17.55;;;13.35;;
41629;SDS011;27322;49.488;8.480;2023-05-21T00:30:49;20.23;;;13.90;;
41629;SDS011;27322;49.488;8.480;2023-05-21T00:33:15;21.65;;;14.25;;
41629;SDS011;27322;49.488;8.480;2023-05-21T00:35:40;20.27;;;13.85;;
41629;SDS011;27322;49.488;8.480;2023-05-21T00:38:06;19.80;;;14.48;;
41629;SDS011;27322;49.488;8.480;2023-05-21T00:40:33;20.77;;;13.82;;
41629;SDS011;27322;49.488;8.480;2023-05-21T00:42:59;19.67;;;13.88;;
41629;SDS011;27322;49.488;8.480;2023-05-21T00:45:26;18.65;;;13.70;;
41629;SDS011;27322;49.488;8.480;2023-05-21T00:47:51;19.02;;;13.40;;
41629;SDS011;27322;49.488;8.480;2023-05-21T00:50:19;16.77;;;12.77;;
41629;SDS011;27322;49.488;8.480;2023-05-21T00:52:47;16.80;;;12.40;;
41629;SDS011;27322;49.488;8.480;2023-05-21T00:55:13;19.80;;;14.00;;
41629;SDS011;27322;49.488;8.480;2023-05-21T00:57:39;19.23;;;13.52;;
41629;SDS011;27322;49.488;8.480;2023-05-21T01:00:06;20.60;;;13.88;;
41629;SDS011;27322;49.488;8.480;2023-05-21T01:02:33;18.67;;;13.60;;
41629;SDS011;27322;49.488;8.480;2023-05-21T01:05:01;19.65;;;13.98;;
41629;SDS011;27322;49.488;8.480;2023-05-21T01:07:31;19.75;;;14.13;;
41629;SDS011;27322;49.488;8.480;2023-05-21T01:09:59;21.13;;;13.77;;
41629;SDS011;27322;49.488;8.480;2023-05-21T01:12:27;19.30;;;14.20;;
41629;SDS011;27322;49.488;8.480;2023-05-21T01:14:55;20.08;;;13.95;;
41629;SDS011;27322;49.488;8.480;2023-05-21T01:17:23;19.77;;;14.07;;
41629;SDS011;27322;49.488;8.480;2023-05-21T01:19:49;19.10;;;13.02;;
41629;SDS011;27322;49.488;8.480;2023-05-21T01:22:16;20.30;;;13.85;;
41629;SDS011;27322;49.488;8.480;2023-05-21T01:24:45;19.95;;;13.70;;
41629;SDS011;27322;49.488;8.480;2023-05-21T01:27:11;18.27;;;13.35;;
41629;SDS011;27322;49.488;8.480;2023-05-21T01:29:37;21.27;;;13.98;;
41629;SDS011;27322;49.488;8.480;2023-05-21T01:34:54;17.90;;;13.35;;
41629;SDS011;27322;49.488;8.480;2023-05-21T01:40:37;19.38;;;13.63;;
41629;SDS011;27322;49.488;8.480;2023-05-21T01:42:51;18.63;;;13.35;;
41629;SDS011;27322;49.488;8.480;2023-05-21T01:45:17;19.55;;;14.00;;
41629;SDS011;27322;49.488;8.480;2023-05-21T01:47:45;17.77;;;13.43;;
41629;SDS011;27322;49.488;8.480;2023-05-21T01:50:13;18.75;;;13.70;;
41629;SDS011;27322;49.488;8.480;2023-05-21T01:52:47;20.05;;;13.68;;
41629;SDS011;27322;49.488;8.480;2023-05-21T01:55:13;19.33;;;13.77;;
41629;SDS011;27322;49.488;8.480;2023-05-21T01:57:39;20.20;;;14.13;;
41629;SDS011;27322;49.488;8.480;2023-05-21T02:00:05;18.13;;;12.77;;
41629;SDS011;27322;49.488;8.480;2023-05-21T02:02:31;18.50;;;13.02;;
41629;SDS011;27322;49.488;8.480;2023-05-21T02:04:57;17.65;;;12.80;;
41629;SDS011;27322;49.488;8.480;2023-05-21T02:07:22;18.50;;;12.90;;
41629;SDS011;27322;49.488;8.480;2023-05-21T02:09:48;17.73;;;12.77;;
41629;SDS011;27322;49.488;8.480;2023-05-21T02:12:14;20.38;;;13.70;;
41629;SDS011;27322;49.488;8.480;2023-05-21T02:14:39;21.40;;;13.75;;
41629;SDS011;27322;49.488;8.480;2023-05-21T02:17:05;19.50;;;13.23;;
41629;SDS011;27322;49.488;8.480;2023-05-21T02:19:32;19.52;;;14.10;;
41629;SDS011;27322;49.488;8.480;2023-05-21T02:21:57;20.10;;;13.90;;
41629;SDS011;27322;49.488;8.480;2023-05-21T02:24:23;19.55;;;13.55;;
41629;SDS011;27322;49.488;8.480;2023-05-21T02:26:49;19.85;;;14.00;;
41629;SDS011;27322;49.488;8.480;2023-05-21T02:29:16;21.40;;;15.38;;
41629;SDS011;27322;49.488;8.480;2023-05-21T02:31:41;19.38;;;13.68;;
41629;SDS011;27322;49.488;8.480;2023-05-21T02:34:07;20.35;;;13.40;;
41629;SDS011;27322;49.488;8.480;2023-05-21T02:36:33;19.83;;;13.98;;
41629;SDS011;27322;49.488;8.480;2023-05-21T02:39:00;19.52;;;12.63;;
41629;SDS011;27322;49.488;8.480;2023-05-21T02:41:25;18.00;;;12.75;;
41629;SDS011;27322;49.488;8.480;2023-05-21T02:43:51;18.83;;;13.38;;
41629;SDS011;27322;49.488;8.480;2023-05-21T02:46:16;17.10;;;12.52;;
41629;SDS011;27322;49.488;8.480;2023-05-21T02:48:42;19.02;;;13.45;;
41629;SDS011;27322;49.488;8.480;2023-05-21T02:51:07;18.90;;;13.00;;
41629;SDS011;27322;49.488;8.480;2023-05-21T02:53:33;18.77;;;13.75;;
41629;SDS011;27322;49.488;8.480;2023-05-21T02:55:58;20.42;;;12.68;;
41629;SDS011;27322;49.488;8.480;2023-05-21T02:58:24;18.40;;;12.82;;
41629;SDS011;27322;49.488;8.480;2023-05-21T03:00:50;18.40;;;13.02;;
41629;SDS011;27322;49.488;8.480;2023-05-21T03:03:17;19.02;;;12.38;;
41629;SDS011;27322;49.488;8.480;2023-05-21T03:05:42;21.17;;;12.40;;
41629;SDS011;27322;49.488;8.480;2023-05-21T03:08:10;20.90;;;13.15;;
41629;SDS011;27322;49.488;8.480;2023-05-21T03:10:35;18.85;;;13.05;;
41629;SDS011;27322;49.488;8.480;2023-05-21T03:13:01;19.77;;;13.20;;
41629;SDS011;27322;49.488;8.480;2023-05-21T03:15:28;17.88;;;12.63;;
41629;SDS011;27322;49.488;8.480;2023-05-21T03:17:57;18.27;;;12.77;;
41629;SDS011;27322;49.488;8.480;2023-05-21T03:20:23;19.55;;;12.85;;
41629;SDS011;27322;49.488;8.480;2023-05-21T03:22:48;18.92;;;13.07;;
41629;SDS011;27322;49.488;8.480;2023-05-21T03:25:14;19.75;;;13.20;;
41629;SDS011;27322;49.488;8.480;2023-05-21T03:27:39;20.17;;;13.35;;
41629;SDS011;27322;49.488;8.480;2023-05-21T03:30:05;21.83;;;13.75;;
41629;SDS011;27322;49.488;8.480;2023-05-21T03:32:31;20.85;;;12.52;;
41629;SDS011;27322;49.488;8.480;2023-05-21T03:35:02;20.33;;;13.48;;
41629;SDS011;27322;49.488;8.480;2023-05-21T03:37:28;18.23;;;12.98;;
41629;SDS011;27322;49.488;8.480;2023-05-21T03:39:54;20.10;;;13.82;;
41629;SDS011;27322;49.488;8.480;2023-05-21T03:42:20;17.38;;;12.82;;
41629;SDS011;27322;49.488;8.480;2023-05-21T03:44:45;19.25;;;12.90;;
41629;SDS011;27322;49.488;8.480;2023-05-21T03:47:11;18.35;;;12.93;;
41629;SDS011;27322;49.488;8.480;2023-05-21T03:49:36;19.45;;;13.25;;
41629;SDS011;27322;49.488;8.480;2023-05-21T03:52:02;18.13;;;12.75;;
41629;SDS011;27322;49.488;8.480;2023-05-21T03:54:28;17.85;;;12.63;;
41629;SDS011;27322;49.488;8.480;2023-05-21T03:56:53;20.52;;;13.50;;
41629;SDS011;27322;49.488;8.480;2023-05-21T03:59:19;18.17;;;12.82;;
41629;SDS011;27322;49.488;8.480;2023-05-21T04:01:44;18.98;;;12.65;;
41629;SDS011;27322;49.488;8.480;2023-05-21T04:04:10;17.25;;;12.50;;
41629;SDS011;27322;49.488;8.480;2023-05-21T04:06:36;17.90;;;12.65;;
41629;SDS011;27322;49.488;8.480;2023-05-21T04:09:02;20.88;;;12.65;;
41629;SDS011;27322;49.488;8.480;2023-05-21T04:11:28;19.67;;;13.30;;
41629;SDS011;27322;49.488;8.480;2023-05-21T04:13:55;19.88;;;13.27;;
41629;SDS011;27322;49.488;8.480;2023-05-21T04:16:20;16.85;;;12.02;;
41629;SDS011;27322;49.488;8.480;2023-05-21T04:18:46;18.30;;;13.00;;
41629;SDS011;27322;49.488;8.480;2023-05-21T04:21:12;17.60;;;12.07;;
41629;SDS011;27322;49.488;8.480;2023-05-21T04:23:38;20.55;;;12.57;;
41629;SDS011;27322;49.488;8.480;2023-05-21T04:26:04;17.73;;;12.65;;
41629;SDS011;27322;49.488;8.480;2023-05-21T04:28:29;18.90;;;13.32;;
41629;SDS011;27322;49.488;8.480;2023-05-21T04:30:55;17.45;;;12.30;;
41629;SDS011;27322;49.488;8.480;2023-05-21T04:33:21;16.67;;;11.95;;
41629;SDS011;27322;49.488;8.480;2023-05-21T04:35:48;18.25;;;13.05;;
41629;SDS011;27322;49.488;8.480;2023-05-21T04:38:15;18.45;;;12.70;;
41629;SDS011;27322;49.488;8.480;2023-05-21T04:40:43;18.98;;;12.48;;
41629;SDS011;27322;49.488;8.480;2023-05-21T04:43:10;19.42;;;12.65;;
41629;SDS011;27322;49.488;8.480;2023-05-21T04:45:36;17.90;;;12.68;;
41629;SDS011;27322;49.488;8.480;2023-05-21T04:48:01;16.60;;;12.07;;
41629;SDS011;27322;49.488;8.480;2023-05-21T04:50:27;17.45;;;12.77;;
41629;SDS011;27322;49.488;8.480;2023-05-21T04:52:55;16.90;;;11.98;;
41629;SDS011;27322;49.488;8.480;2023-05-21T04:55:23;18.48;;;12.63;;
41629;SDS011;27322;49.488;8.480;2023-05-21T04:57:49;18.15;;;12.32;;
41629;SDS011;27322;49.488;8.480;2023-05-21T05:00:16;19.63;;;12.70;;
41629;SDS011;27322;49.488;8.480;2023-05-21T05:02:42;17.30;;;12.52;;
41629;SDS011;27322;49.488;8.480;2023-05-21T05:05:07;19.25;;;12.38;;
41629;SDS011;27322;49.488;8.480;2023-05-21T05:07:33;17.27;;;12.20;;
41629;SDS011;27322;49.488;8.480;2023-05-21T05:09:59;19.45;;;12.77;;
41629;SDS011;27322;49.488;8.480;2023-05-21T05:12:25;19.50;;;13.02;;
41629;SDS011;27322;49.488;8.480;2023-05-21T05:14:50;19.92;;;12.48;;
41629;SDS011;27322;49.488;8.480;2023-05-21T05:17:16;17.60;;;12.15;;
41629;SDS011;27322;49.488;8.480;2023-05-21T05:19:42;19.45;;;13.40;;
41629;SDS011;27322;49.488;8.480;2023-05-21T05:22:08;19.58;;;12.95;;
41629;SDS011;27322;49.488;8.480;2023-05-21T05:24:34;17.90;;;13.05;;
41629;SDS011;27322;49.488;8.480;2023-05-21T05:26:59;17.55;;;11.98;;
41629;SDS011;27322;49.488;8.480;2023-05-21T05:29:25;18.10;;;12.57;;
41629;SDS011;27322;49.488;8.480;2023-05-21T05:31:51;21.58;;;13.15;;
41629;SDS011;27322;49.488;8.480;2023-05-21T05:34:16;18.27;;;12.70;;
41629;SDS011;27322;49.488;8.480;2023-05-21T05:36:42;17.70;;;12.65;;
41629;SDS011;27322;49.488;8.480;2023-05-21T05:39:07;17.27;;;12.45;;
41629;SDS011;27322;49.488;8.480;2023-05-21T05:41:34;18.00;;;12.63;;
41629;SDS011;27322;49.488;8.480;2023-05-21T05:43:59;17.48;;;12.27;;
41629;SDS011;27322;49.488;8.480;2023-05-21T05:46:25;17.98;;;12.60;;
41629;SDS011;27322;49.488;8.480;2023-05-21T05:48:51;18.52;;;12.32;;
41629;SDS011;27322;49.488;8.480;2023-05-21T05:51:16;19.23;;;12.82;;
41629;SDS011;27322;49.488;8.480;2023-05-21T05:53:42;18.83;;;12.85;;
41629;SDS011;27322;49.488;8.480;2023-05-21T05:56:07;17.58;;;12.48;;
41629;SDS011;27322;49.488;8.480;2023-05-21T05:58:33;19.73;;;12.45;;
41629;SDS011;27322;49.488;8.480;2023-05-21T06:00:59;19.55;;;12.70;;
41629;SDS011;27322;49.488;8.480;2023-05-21T06:03:25;20.15;;;13.43;;
41629;SDS011;27322;49.488;8.480;2023-05-21T06:05:50;17.27;;;12.27;;
41629;SDS011;27322;49.488;8.480;2023-05-21T06:08:16;16.40;;;11.98;;
41629;SDS011;27322;49.488;8.480;2023-05-21T06:10:41;20.38;;;13.02;;
41629;SDS011;27322;49.488;8.480;2023-05-21T06:13:07;17.80;;;12.45;;
41629;SDS011;27322;49.488;8.480;2023-05-21T06:15:33;17.75;;;12.80;;
41629;SDS011;27322;49.488;8.480;2023-05-21T06:17:58;17.60;;;12.45;;
41629;SDS011;27322;49.488;8.480;2023-05-21T06:20:24;16.95;;;11.90;;
41629;SDS011;27322;49.488;8.480;2023-05-21T06:22:49;18.25;;;12.85;;
41629;SDS011;27322;49.488;8.480;2023-05-21T06:25:15;18.15;;;12.40;;
41629;SDS011;27322;49.488;8.480;2023-05-21T06:27:42;17.85;;;11.50;;
41629;SDS011;27322;49.488;8.480;2023-05-21T06:30:07;19.02;;;12.45;;
41629;SDS011;27322;49.488;8.480;2023-05-21T06:32:33;17.20;;;12.45;;
41629;SDS011;27322;49.488;8.480;2023-05-21T06:34:59;18.10;;;11.75;;
41629;SDS011;27322;49.488;8.480;2023-05-21T06:37:25;17.45;;;12.15;;
41629;SDS011;27322;49.488;8.480;2023-05-21T06:39:50;15.05;;;10.90;;
41629;SDS011;27322;49.488;8.480;2023-05-21T06:42:16;19.92;;;12.05;;
41629;SDS011;27322;49.488;8.480;2023-05-21T06:44:41;17.42;;;12.00;;
41629;SDS011;27322;49.488;8.480;2023-05-21T06:47:07;16.95;;;12.32;;
41629;SDS011;27322;49.488;8.480;2023-05-21T06:49:33;16.23;;;11.70;;
41629;SDS011;27322;49.488;8.480;2023-05-21T06:51:59;18.42;;;12.25;;
41629;SDS011;27322;49.488;8.480;2023-05-21T06:54:25;20.38;;;11.95;;
41629;SDS011;27322;49.488;8.480;2023-05-21T06:56:50;14.18;;;10.20;;
41629;SDS011;27322;49.488;8.480;2023-05-21T06:59:16;16.50;;;12.27;;
41629;SDS011;27322;49.488;8.480;2023-05-21T07:01:42;16.23;;;11.98;;
41629;SDS011;27322;49.488;8.480;2023-05-21T07:04:08;18.40;;;11.63;;
41629;SDS011;27322;49.488;8.480;2023-05-21T07:06:34;16.55;;;11.75;;
41629;SDS011;27322;49.488;8.480;2023-05-21T07:09:00;15.82;;;11.70;;
41629;SDS011;27322;49.488;8.480;2023-05-21T07:11:26;16.73;;;11.30;;
41629;SDS011;27322;49.488;8.480;2023-05-21T07:13:53;15.90;;;11.60;;
41629;SDS011;27322;49.488;8.480;2023-05-21T07:16:20;14.57;;;10.68;;
41629;SDS011;27322;49.488;8.480;2023-05-21T07:18:46;15.77;;;11.85;;
41629;SDS011;27322;49.488;8.480;2023-05-21T07:21:11;16.63;;;11.80;;
41629;SDS011;27322;49.488;8.480;2023-05-21T07:23:37;15.27;;;11.23;;
41629;SDS011;27322;49.488;8.480;2023-05-21T07:26:02;17.50;;;11.98;;
41629;SDS011;27322;49.488;8.480;2023-05-21T07:28:29;16.65;;;11.07;;
41629;SDS011;27322;49.488;8.480;2023-05-21T07:30:55;14.88;;;11.38;;
41629;SDS011;27322;49.488;8.480;2023-05-21T07:33:20;15.05;;;10.77;;
41629;SDS011;27322;49.488;8.480;2023-05-21T07:35:46;16.08;;;11.70;;
41629;SDS011;27322;49.488;8.480;2023-05-21T07:38:12;16.55;;;10.93;;
41629;SDS011;27322;49.488;8.480;2023-05-21T07:40:38;16.30;;;11.65;;
41629;SDS011;27322;49.488;8.480;2023-05-21T07:43:03;16.13;;;11.02;;
41629;SDS011;27322;49.488;8.480;2023-05-21T07:45:29;15.93;;;10.65;;
41629;SDS011;27322;49.488;8.480;2023-05-21T07:47:55;13.50;;;10.45;;
41629;SDS011;27322;49.488;8.480;2023-05-21T07:50:20;15.05;;;11.10;;
41629;SDS011;27322;49.488;8.480;2023-05-21T07:52:46;14.85;;;11.35;;
41629;SDS011;27322;49.488;8.480;2023-05-21T07:55:12;15.13;;;11.07;;
41629;SDS011;27322;49.488;8.480;2023-05-21T07:57:37;14.57;;;10.57;;
41629;SDS011;27322;49.488;8.480;2023-05-21T08:00:03;15.63;;;11.27;;
41629;SDS011;27322;49.488;8.480;2023-05-21T08:02:32;15.25;;;11.10;;
41629;SDS011;27322;49.488;8.480;2023-05-21T08:04:58;14.57;;;10.73;;
41629;SDS011;27322;49.488;8.480;2023-05-21T08:07:25;14.60;;;10.55;;
41629;SDS011;27322;49.488;8.480;2023-05-21T08:09:51;16.55;;;11.60;;
41629;SDS011;27322;49.488;8.480;2023-05-21T08:12:18;14.27;;;10.57;;
41629;SDS011;27322;49.488;8.480;2023-05-21T08:14:43;13.95;;;10.55;;
41629;SDS011;27322;49.488;8.480;2023-05-21T08:17:09;12.80;;;9.63;;
41629;SDS011;27322;49.488;8.480;2023-05-21T08:19:35;14.55;;;10.73;;
41629;SDS011;27322;49.488;8.480;2023-05-21T08:22:01;14.80;;;11.23;;
41629;SDS011;27322;49.488;8.480;2023-05-21T08:24:27;13.60;;;9.70;;
41629;SDS011;27322;49.488;8.480;2023-05-21T08:26:53;11.80;;;9.77;;
41629;SDS011;27322;49.488;8.480;2023-05-21T08:29:18;11.77;;;9.68;;
41629;SDS011;27322;49.488;8.480;2023-05-21T08:31:44;13.23;;;10.38;;
41629;SDS011;27322;49.488;8.480;2023-05-21T08:34:10;13.23;;;9.48;;
41629;SDS011;27322;49.488;8.480;2023-05-21T08:36:36;10.90;;;9.20;;
41629;SDS011;27322;49.488;8.480;2023-05-21T08:39:02;12.68;;;9.52;;
41629;SDS011;27322;49.488;8.480;2023-05-21T08:41:28;13.98;;;10.48;;
41629;SDS011;27322;49.488;8.480;2023-05-21T08:43:58;15.10;;;10.73;;
41629;SDS011;27322;49.488;8.480;2023-05-21T08:46:26;13.90;;;10.40;;
41629;SDS011;27322;49.488;8.480;2023-05-21T08:48:56;14.77;;;10.40;;
41629;SDS011;27322;49.488;8.480;2023-05-21T08:51:25;12.20;;;9.85;;
41629;SDS011;27322;49.488;8.480;2023-05-21T08:53:52;13.15;;;10.13;;
41629;SDS011;27322;49.488;8.480;2023-05-21T08:56:19;11.98;;;8.95;;
41629;SDS011;27322;49.488;8.480;2023-05-21T08:58:45;13.50;;;10.48;;
41629;SDS011;27322;49.488;8.480;2023-05-21T09:01:11;12.65;;;9.90;;
41629;SDS011;27322;49.488;8.480;2023-05-21T09:03:38;12.75;;;9.60;;
41629;SDS011;27322;49.488;8.480;2023-05-21T09:06:05;13.35;;;9.10;;
41629;SDS011;27322;49.488;8.480;2023-05-21T09:08:35;10.98;;;9.27;;
41629;SDS011;27322;49.488;8.480;2023-05-21T09:11:07;14.10;;;9.98;;
41629;SDS011;27322;49.488;8.480;2023-05-21T09:13:32;11.93;;;9.18;;
41629;SDS011;27322;49.488;8.480;2023-05-21T09:15:59;12.40;;;9.70;;
41629;SDS011;27322;49.488;8.480;2023-05-21T09:18:25;11.18;;;9.15;;
41629;SDS011;27322;49.488;8.480;2023-05-21T09:20:53;16.00;;;9.43;;
41629;SDS011;27322;49.488;8.480;2023-05-21T09:23:20;11.52;;;9.18;;
41629;SDS011;27322;49.488;8.480;2023-05-21T09:25:46;13.30;;;9.20;;
41629;SDS011;27322;49.488;8.480;2023-05-21T09:28:13;11.95;;;9.20;;
41629;SDS011;27322;49.488;8.480;2023-05-21T09:30:46;11.48;;;9.18;;
41629;SDS011;27322;49.488;8.480;2023-05-21T09:33:26;12.77;;;9.13;;
41629;SDS011;27322;49.488;8.480;2023-05-21T09:35:55;11.73;;;8.57;;
41629;SDS011;27322;49.488;8.480;2023-05-21T09:38:21;13.38;;;10.43;;
41629;SDS011;27322;49.488;8.480;2023-05-21T09:40:47;13.85;;;10.55;;
41629;SDS011;27322;49.488;8.480;2023-05-21T09:43:14;11.75;;;9.15;;
41629;SDS011;27322;49.488;8.480;2023-05-21T09:45:49;12.45;;;8.93;;
41629;SDS011;27322;49.488;8.480;2023-05-21T09:48:16;12.45;;;9.77;;
41629;SDS011;27322;49.488;8.480;2023-05-21T09:51:05;11.57;;;9.30;;
41629;SDS011;27322;49.488;8.480;2023-05-21T09:53:54;11.38;;;8.75;;
41629;SDS011;27322;49.488;8.480;2023-05-21T09:56:24;13.30;;;8.95;;
41629;SDS011;27322;49.488;8.480;2023-05-21T09:58:55;14.05;;;8.35;;
41629;SDS011;27322;49.488;8.480;2023-05-21T10:01:22;9.88;;;8.05;;
41629;SDS011;27322;49.488;8.480;2023-05-21T10:03:55;8.65;;;7.30;;
41629;SDS011;27322;49.488;8.480;2023-05-21T10:06:25;10.25;;;8.20;;
41629;SDS011;27322;49.488;8.480;2023-05-21T10:08:53;9.75;;;7.57;;
41629;SDS011;27322;49.488;8.480;2023-05-21T10:11:24;11.30;;;8.38;;
41629;SDS011;27322;49.488;8.480;2023-05-21T10:13:54;9.77;;;7.72;;
41629;SDS011;27322;49.488;8.480;2023-05-21T10:16:33;12.95;;;7.50;;
41629;SDS011;27322;49.488;8.480;2023-05-21T10:19:00;10.20;;;7.75;;
41629;SDS011;27322;49.488;8.480;2023-05-21T10:21:26;8.57;;;7.30;;
41629;SDS011;27322;49.488;8.480;2023-05-21T10:23:52;9.85;;;7.65;;
41629;SDS011;27322;49.488;8.480;2023-05-21T10:26:21;10.57;;;7.55;;
41629;SDS011;27322;49.488;8.480;2023-05-21T10:28:48;11.23;;;8.52;;
41629;SDS011;27322;49.488;8.480;2023-05-21T10:31:15;11.40;;;8.00;;
41629;SDS011;27322;49.488;8.480;2023-05-21T10:33:42;11.27;;;8.82;;
41629;SDS011;27322;49.488;8.480;2023-05-21T10:36:07;10.32;;;7.68;;
41629;SDS011;27322;49.488;8.480;2023-05-21T10:38:34;10.05;;;7.47;;
41629;SDS011;27322;49.488;8.480;2023-05-21T10:41:01;11.60;;;8.02;;
41629;SDS011;27322;49.488;8.480;2023-05-21T10:55:00;11.05;;;8.13;;
41629;SDS011;27322;49.488;8.480;2023-05-21T11:02:40;9.60;;;7.78;;
41629;SDS011;27322;49.488;8.480;2023-05-21T11:05:07;10.77;;;8.30;;
41629;SDS011;27322;49.488;8.480;2023-05-21T11:13:09;12.98;;;8.40;;
41629;SDS011;27322;49.488;8.480;2023-05-21T11:26:14;10.80;;;7.93;;
41629;SDS011;27322;49.488;8.480;2023-05-21T11:28:40;10.73;;;8.05;;
41629;SDS011;27322;49.488;8.480;2023-05-21T11:31:25;11.13;;;7.90;;
41629;SDS011;27322;49.488;8.480;2023-05-21T11:36:38;10.82;;;7.85;;
41629;SDS011;27322;49.488;8.480;2023-05-21T11:39:09;9.57;;;7.60;;
41629;SDS011;27322;49.488;8.480;2023-05-21T11:44:39;9.80;;;7.60;;
41629;SDS011;27322;49.488;8.480;2023-05-21T11:47:08;9.23;;;7.50;;
41629;SDS011;27322;49.488;8.480;2023-05-21T11:49:41;10.57;;;7.43;;
41629;SDS011;27322;49.488;8.480;2023-05-21T11:52:09;11.80;;;7.82;;
41629;SDS011;27322;49.488;8.480;2023-05-21T11:54:43;9.77;;;7.47;;
41629;SDS011;27322;49.488;8.480;2023-05-21T11:57:14;10.07;;;7.72;;
41629;SDS011;27322;49.488;8.480;2023-05-21T11:59:42;9.35;;;7.03;;
41629;SDS011;27322;49.488;8.480;2023-05-21T12:02:08;9.77;;;7.50;;
41629;SDS011;27322;49.488;8.480;2023-05-21T12:04:37;10.07;;;7.47;;
41629;SDS011;27322;49.488;8.480;2023-05-21T12:07:03;10.43;;;7.28;;
41629;SDS011;27322;49.488;8.480;2023-05-21T12:09:39;10.65;;;7.95;;
41629;SDS011;27322;49.488;8.480;2023-05-21T12:12:06;9.75;;;7.55;;
41629;SDS011;27322;49.488;8.480;2023-05-21T12:14:33;9.55;;;7.70;;
41629;SDS011;27322;49.488;8.480;2023-05-21T12:17:00;11.95;;;7.53;;
41629;SDS011;27322;49.488;8.480;2023-05-21T12:19:31;8.95;;;7.50;;
41629;SDS011;27322;49.488;8.480;2023-05-21T12:22:00;10.18;;;7.68;;
41629;SDS011;27322;49.488;8.480;2023-05-21T12:24:27;10.32;;;7.57;;
41629;SDS011;27322;49.488;8.480;2023-05-21T12:26:52;9.27;;;7.07;;
41629;SDS011;27322;49.488;8.480;2023-05-21T12:29:19;11.13;;;7.53;;
41629;SDS011;27322;49.488;8.480;2023-05-21T12:31:47;9.45;;;7.60;;
41629;SDS011;27322;49.488;8.480;2023-05-21T12:34:14;10.50;;;7.38;;
41629;SDS011;27322;49.488;8.480;2023-05-21T12:36:56;9.93;;;7.78;;
41629;SDS011;27322;49.488;8.480;2023-05-21T12:39:27;9.55;;;7.32;;
41629;SDS011;27322;49.488;8.480;2023-05-21T12:41:54;9.63;;;7.18;;
41629;SDS011;27322;49.488;8.480;2023-05-21T12:44:19;10.35;;;6.88;;
41629;SDS011;27322;49.488;8.480;2023-05-21T12:46:45;9.18;;;6.25;;
41629;SDS011;27322;49.488;8.480;2023-05-21T12:49:29;9.30;;;6.70;;
41629;SDS011;27322;49.488;8.480;2023-05-21T12:52:09;9.05;;;6.70;;
41629;SDS011;27322;49.488;8.480;2023-05-21T12:54:40;7.82;;;6.35;;
41629;SDS011;27322;49.488;8.480;2023-05-21T12:57:12;10.77;;;6.75;;
41629;SDS011;27322;49.488;8.480;2023-05-21T12:59:50;10.00;;;5.90;;
41629;SDS011;27322;49.488;8.480;2023-05-21T13:04:53;7.57;;;5.80;;
41629;SDS011;27322;49.488;8.480;2023-05-21T13:07:27;8.63;;;6.25;;
41629;SDS011;27322;49.488;8.480;2023-05-21T13:09:54;7.88;;;5.95;;
41629;SDS011;27322;49.488;8.480;2023-05-21T13:12:21;9.00;;;5.82;;
41629;SDS011;27322;49.488;8.480;2023-05-21T13:14:51;8.63;;;6.22;;
41629;SDS011;27322;49.488;8.480;2023-05-21T13:17:21;9.32;;;5.90;;
41629;SDS011;27322;49.488;8.480;2023-05-21T13:20:04;7.97;;;6.07;;
41629;SDS011;27322;49.488;8.480;2023-05-21T13:22:36;8.32;;;6.00;;
41629;SDS011;27322;49.488;8.480;2023-05-21T13:25:06;8.52;;;5.70;;
41629;SDS011;27322;49.488;8.480;2023-05-21T13:27:33;7.18;;;5.57;;
41629;SDS011;27322;49.488;8.480;2023-05-21T13:29:59;8.23;;;5.70;;
41629;SDS011;27322;49.488;8.480;2023-05-21T13:32:25;10.82;;;5.85;;
41629;SDS011;27322;49.488;8.480;2023-05-21T13:34:50;8.60;;;6.03;;
41629;SDS011;27322;49.488;8.480;2023-05-21T13:37:16;8.73;;;6.00;;
41629;SDS011;27322;49.488;8.480;2023-05-21T13:39:41;7.75;;;5.90;;
41629;SDS011;27322;49.488;8.480;2023-05-21T13:42:10;8.52;;;5.63;;
41629;SDS011;27322;49.488;8.480;2023-05-21T13:44:36;7.55;;;5.72;;
41629;SDS011;27322;49.488;8.480;2023-05-21T13:47:02;8.80;;;5.93;;
41629;SDS011;27322;49.488;8.480;2023-05-21T13:49:29;7.32;;;5.70;;
41629;SDS011;27322;49.488;8.480;2023-05-21T13:51:54;7.18;;;5.25;;
41629;SDS011;27322;49.488;8.480;2023-05-21T13:54:22;6.95;;;5.55;;
41629;SDS011;27322;49.488;8.480;2023-05-21T13:56:48;10.00;;;5.72;;
41629;SDS011;27322;49.488;8.480;2023-05-21T13:59:13;7.93;;;5.70;;
41629;SDS011;27322;49.488;8.480;2023-05-21T14:01:39;7.85;;;5.93;;
41629;SDS011;27322;49.488;8.480;2023-05-21T14:04:05;7.97;;;5.78;;
41629;SDS011;27322;49.488;8.480;2023-05-21T14:06:31;7.85;;;5.38;;
41629;SDS011;27322;49.488;8.480;2023-05-21T14:08:58;7.65;;;5.70;;
41629;SDS011;27322;49.488;8.480;2023-05-21T14:11:24;7.78;;;5.80;;
41629;SDS011;27322;49.488;8.480;2023-05-21T14:13:50;6.93;;;5.20;;
41629;SDS011;27322;49.488;8.480;2023-05-21T14:16:17;9.23;;;5.40;;
41629;SDS011;27322;49.488;8.480;2023-05-21T14:18:53;7.65;;;5.10;;
41629;SDS011;27322;49.488;8.480;2023-05-21T14:21:19;7.40;;;5.40;;
41629;SDS011;27322;49.488;8.480;2023-05-21T14:23:45;7.95;;;5.22;;
41629;SDS011;27322;49.488;8.480;2023-05-21T14:26:11;6.97;;;5.40;;
41629;SDS011;27322;49.488;8.480;2023-05-21T14:28:36;6.97;;;5.20;;
41629;SDS011;27322;49.488;8.480;2023-05-21T14:31:02;7.20;;;5.30;;
41629;SDS011;27322;49.488;8.480;2023-05-21T14:33:29;8.18;;;5.18;;
41629;SDS011;27322;49.488;8.480;2023-05-21T14:35:55;8.27;;;5.50;;
41629;SDS011;27322;49.488;8.480;2023-05-21T14:38:21;6.53;;;5.22;;
41629;SDS011;27322;49.488;8.480;2023-05-21T14:40:46;6.68;;;4.88;;
41629;SDS011;27322;49.488;8.480;2023-05-21T14:43:12;7.25;;;5.05;;
41629;SDS011;27322;49.488;8.480;2023-05-21T14:45:37;7.30;;;5.18;;
41629;SDS011;27322;49.488;8.480;2023-05-21T14:48:03;7.68;;;4.88;;
41629;SDS011;27322;49.488;8.480;2023-05-21T14:50:35;6.95;;;4.75;;
41629;SDS011;27322;49.488;8.480;2023-05-21T14:53:05;6.53;;;4.75;;
41629;SDS011;27322;49.488;8.480;2023-05-21T14:55:35;6.13;;;4.47;;
41629;SDS011;27322;49.488;8.480;2023-05-21T14:58:01;8.35;;;5.47;;
41629;SDS011;27322;49.488;8.480;2023-05-21T15:00:30;7.20;;;5.25;;
41629;SDS011;27322;49.488;8.480;2023-05-21T15:02:56;7.22;;;5.18;;
41629;SDS011;27322;49.488;8.480;2023-05-21T15:05:22;7.03;;;4.85;;
41629;SDS011;27322;49.488;8.480;2023-05-21T15:07:49;8.23;;;5.60;;
41629;SDS011;27322;49.488;8.480;2023-05-21T15:10:15;7.50;;;5.25;;
41629;SDS011;27322;49.488;8.480;2023-05-21T15:12:40;8.18;;;5.40;;
41629;SDS011;27322;49.488;8.480;2023-05-21T15:15:08;7.55;;;5.13;;